createdAt,value
2023-04-30T00:01:22.285Z,29.20
2023-04-30T00:03:48.836Z,32.00
2023-04-30T00:06:15.987Z,34.97
2023-04-30T00:08:42.618Z,32.77
2023-04-30T00:11:09.130Z,34.70
2023-04-30T00:13:35.611Z,30.07
2023-04-30T00:16:02.133Z,32.33
2023-04-30T00:18:28.684Z,32.67
2023-04-30T00:20:55.112Z,30.30
2023-04-30T00:23:21.651Z,30.13
2023-04-30T00:25:48.116Z,33.63
2023-04-30T00:28:14.568Z,31.77
2023-04-30T00:30:41.131Z,36.10
2023-04-30T00:33:07.737Z,32.90
2023-04-30T00:35:34.233Z,36.00
2023-04-30T00:38:00.688Z,33.77
2023-04-30T00:40:27.135Z,33.40
2023-04-30T00:42:55.694Z,34.90
2023-04-30T00:45:23.439Z,40.73
2023-04-30T00:47:49.979Z,33.43
2023-04-30T00:50:16.723Z,35.60
2023-04-30T00:52:44.241Z,37.37
2023-04-30T00:55:12.161Z,37.67
2023-04-30T00:57:39.078Z,36.90
2023-04-30T01:00:06.328Z,39.87
2023-04-30T01:02:33.112Z,38.77
2023-04-30T01:04:59.638Z,39.57
2023-04-30T01:07:28.370Z,37.50
2023-04-30T01:09:55.203Z,38.63
2023-04-30T01:12:33.177Z,40.63
2023-04-30T01:15:25.023Z,37.07
2023-04-30T01:18:14.737Z,37.50
2023-04-30T01:20:46.286Z,36.20
2023-04-30T01:23:50.061Z,34.07
2023-04-30T01:26:25.919Z,42.87
2023-04-30T01:28:53.371Z,39.17
2023-04-30T01:31:20.549Z,34.43
2023-04-30T01:33:47.064Z,39.77
2023-04-30T01:36:31.974Z,37.67
2023-04-30T01:39:22.280Z,37.57
2023-04-30T01:42:29.197Z,31.30
2023-04-30T01:45:17.820Z,36.13
2023-04-30T01:47:53.834Z,38.40
2023-04-30T01:50:39.757Z,39.47
2023-04-30T01:53:16.996Z,34.30
2023-04-30T01:55:49.742Z,35.93
2023-04-30T01:58:16.713Z,35.20
2023-04-30T02:00:43.189Z,33.33
2023-04-30T02:03:09.816Z,34.70
2023-04-30T02:05:36.452Z,37.27
2023-04-30T02:08:03.397Z,30.37
2023-04-30T02:10:30.678Z,33.67
2023-04-30T02:12:57.238Z,35.00
2023-04-30T02:15:23.893Z,36.17
2023-04-30T02:17:50.634Z,33.07
2023-04-30T02:20:17.228Z,32.90
2023-04-30T02:22:43.713Z,29.43
2023-04-30T02:25:12.387Z,35.87
2023-04-30T02:27:38.991Z,30.07
2023-04-30T02:30:06.466Z,33.03
2023-04-30T02:32:33.249Z,27.63
2023-04-30T02:34:59.825Z,27.60
2023-04-30T02:37:26.411Z,29.70
2023-04-30T02:39:53.558Z,27.83
2023-04-30T02:42:20.293Z,26.47
2023-04-30T02:44:46.869Z,26.40
2023-04-30T02:47:13.412Z,25.03
2023-04-30T02:49:40.108Z,27.73
2023-04-30T02:52:09.510Z,26.97
2023-04-30T02:54:36.496Z,26.37
2023-04-30T02:57:03.449Z,24.30
2023-04-30T02:59:29.994Z,25.87
2023-04-30T03:01:56.493Z,26.33
2023-04-30T03:04:23.531Z,25.10
2023-04-30T03:06:50.079Z,26.30
2023-04-30T03:09:16.804Z,27.50
2023-04-30T03:11:43.259Z,23.43
2023-04-30T03:14:09.729Z,27.30
2023-04-30T03:16:36.701Z,26.77
2023-04-30T03:19:03.228Z,27.83
2023-04-30T03:21:29.723Z,27.30
2023-04-30T03:23:56.180Z,22.53
2023-04-30T03:26:22.684Z,26.43
2023-04-30T03:28:49.585Z,22.07
2023-04-30T03:31:16.102Z,20.73
2023-04-30T03:33:42.694Z,22.03
2023-04-30T03:36:09.189Z,23.43
2023-04-30T03:38:35.637Z,23.73
2023-04-30T03:41:02.250Z,21.10
2023-04-30T03:43:28.809Z,29.13
2023-04-30T03:45:55.334Z,22.73
2023-04-30T03:48:21.846Z,23.73
2023-04-30T03:50:48.445Z,27.10
2023-04-30T03:53:14.919Z,22.77
2023-04-30T03:55:42.063Z,24.87
2023-04-30T03:58:08.617Z,20.33
2023-04-30T04:00:35.164Z,13.30
2023-04-30T04:03:01.727Z,14.10
2023-04-30T04:05:29.217Z,14.77
2023-04-30T04:07:55.870Z,11.90
2023-04-30T04:10:22.447Z,15.80
2023-04-30T04:12:49.067Z,16.17
2023-04-30T04:15:15.592Z,13.13
2023-04-30T04:17:42.302Z,15.43
2023-04-30T04:20:10.138Z,17.93
2023-04-30T04:22:37.958Z,16.70
2023-04-30T04:25:04.642Z,16.37
2023-04-30T04:27:31.202Z,18.67
2023-04-30T04:29:57.738Z,19.73
2023-04-30T04:32:24.736Z,13.60
2023-04-30T04:34:51.483Z,14.87
2023-04-30T04:37:18.133Z,15.83
2023-04-30T04:39:45.262Z,13.63
2023-04-30T04:42:12.060Z,17.93
2023-04-30T04:44:39.411Z,14.83
2023-04-30T04:47:06.165Z,13.07
2023-04-30T04:49:32.885Z,16.60
2023-04-30T04:51:59.659Z,15.23
2023-04-30T04:54:26.229Z,16.13
2023-04-30T04:56:52.779Z,14.53
2023-04-30T04:59:19.288Z,17.07
2023-04-30T05:01:45.902Z,14.70
2023-04-30T05:04:14.050Z,14.50
2023-04-30T05:06:41.532Z,16.27
2023-04-30T05:09:09.450Z,15.00
2023-04-30T05:11:36.499Z,20.07
2023-04-30T05:14:03.202Z,18.50
2023-04-30T05:16:30.216Z,17.23
2023-04-30T05:18:56.863Z,20.50
2023-04-30T05:21:23.506Z,25.00
2023-04-30T05:23:49.983Z,16.20
2023-04-30T05:26:16.721Z,20.63
2023-04-30T05:28:43.265Z,16.37
2023-04-30T05:31:09.837Z,21.10
2023-04-30T05:33:37.173Z,18.90
2023-04-30T05:36:03.916Z,17.17
2023-04-30T05:38:30.786Z,17.67
2023-04-30T05:40:57.297Z,18.70
2023-04-30T05:43:23.762Z,19.30
2023-04-30T05:45:50.473Z,17.23
2023-04-30T05:48:17.020Z,17.90
2023-04-30T05:50:43.723Z,20.13
2023-04-30T05:53:10.226Z,20.57
2023-04-30T05:55:36.948Z,25.90
2023-04-30T05:58:03.453Z,20.07
2023-04-30T06:00:30.148Z,23.97
2023-04-30T06:02:56.732Z,23.93
2023-04-30T06:05:23.369Z,24.13
2023-04-30T06:07:50.247Z,21.67
2023-04-30T06:10:16.814Z,22.13
2023-04-30T06:12:43.259Z,21.50
2023-04-30T06:15:10.025Z,22.43
2023-04-30T06:17:37.061Z,21.00
2023-04-30T06:20:06.981Z,25.60
2023-04-30T06:22:34.205Z,23.00
2023-04-30T06:25:00.959Z,22.93
2023-04-30T06:27:32.299Z,24.57
2023-04-30T06:30:00.877Z,25.53
2023-04-30T06:32:27.707Z,22.87
2023-04-30T06:34:55.308Z,22.97
2023-04-30T06:37:21.854Z,23.47
2023-04-30T06:39:48.969Z,19.23
2023-04-30T06:42:15.453Z,20.53
2023-04-30T06:44:42.108Z,14.30
2023-04-30T06:47:08.672Z,14.20
2023-04-30T06:49:35.292Z,16.17
2023-04-30T06:52:01.951Z,11.50
2023-04-30T06:54:28.532Z,9.47
2023-04-30T06:56:54.997Z,11.90
2023-04-30T06:59:21.656Z,7.73
2023-04-30T07:01:48.363Z,15.00
2023-04-30T07:04:14.881Z,9.87
2023-04-30T07:06:41.787Z,9.57
2023-04-30T07:09:08.853Z,14.97
2023-04-30T07:11:35.453Z,11.43
2023-04-30T07:14:02.095Z,9.70
2023-04-30T07:16:28.689Z,9.50
2023-04-30T07:18:55.366Z,15.50
2023-04-30T07:21:21.991Z,9.57
2023-04-30T07:23:51.500Z,7.75
2023-04-30T07:26:18.379Z,9.03
2023-04-30T07:28:48.009Z,7.73
2023-04-30T07:31:16.587Z,7.07
2023-04-30T07:33:43.527Z,10.83
2023-04-30T07:36:11.414Z,11.57
2023-04-30T07:38:37.909Z,9.40
2023-04-30T07:41:04.391Z,8.50
2023-04-30T07:43:31.912Z,8.50
2023-04-30T07:45:59.420Z,8.07
2023-04-30T07:48:25.885Z,8.67
2023-04-30T07:50:53.018Z,10.03
2023-04-30T07:53:19.832Z,9.77
2023-04-30T07:55:46.595Z,7.97
2023-04-30T07:58:13.226Z,11.93
2023-04-30T08:00:40.066Z,9.03
2023-04-30T08:03:06.840Z,8.13
2023-04-30T08:05:33.397Z,11.27
2023-04-30T08:08:00.819Z,8.80
2023-04-30T08:10:27.387Z,11.23
2023-04-30T08:12:53.921Z,11.20
2023-04-30T08:15:23.462Z,8.13
2023-04-30T08:17:51.278Z,9.43
2023-04-30T08:20:18.153Z,12.37
2023-04-30T08:22:45.427Z,9.27
2023-04-30T08:25:12.372Z,11.23
2023-04-30T08:27:39.463Z,9.33
2023-04-30T08:30:09.028Z,8.23
2023-04-30T08:32:36.344Z,5.73
2023-04-30T08:35:07.146Z,9.63
2023-04-30T08:37:34.080Z,11.30
2023-04-30T08:40:00.574Z,4.50
2023-04-30T08:42:36.547Z,6.63
2023-04-30T08:45:04.264Z,5.97
2023-04-30T08:47:31.140Z,7.63
2023-04-30T08:49:57.804Z,15.10
2023-04-30T08:52:25.175Z,6.60
2023-04-30T08:54:54.191Z,7.60
2023-04-30T08:57:20.896Z,7.37
2023-04-30T08:59:47.740Z,4.83
2023-04-30T09:02:14.467Z,6.03
2023-04-30T09:04:41.203Z,6.20
2023-04-30T09:07:09.551Z,6.07
2023-04-30T09:09:39.432Z,10.63
2023-04-30T09:12:18.393Z,5.27
2023-04-30T09:15:03.648Z,6.50
2023-04-30T09:17:31.199Z,4.30
2023-04-30T09:20:08.421Z,6.70
2023-04-30T09:22:36.766Z,5.50
2023-04-30T09:25:03.416Z,3.50
2023-04-30T09:27:29.905Z,9.68
2023-04-30T09:29:57.014Z,4.97
2023-04-30T09:32:23.693Z,7.17
2023-04-30T09:34:50.408Z,6.20
2023-04-30T09:37:17.014Z,5.33
2023-04-30T09:39:54.260Z,8.73
2023-04-30T09:42:21.472Z,4.47
2023-04-30T09:44:48.568Z,7.20
2023-04-30T09:47:19.286Z,8.03
2023-04-30T09:49:52.539Z,7.43
2023-04-30T09:52:20.331Z,6.23
2023-04-30T09:54:47.218Z,10.50
2023-04-30T09:57:15.584Z,4.67
2023-04-30T09:59:46.632Z,7.00
2023-04-30T10:02:16.973Z,6.93
2023-04-30T10:04:45.063Z,5.27
2023-04-30T10:07:22.237Z,6.93
2023-04-30T10:10:03.125Z,13.53
2023-04-30T10:12:44.437Z,11.63
2023-04-30T10:15:31.414Z,7.63
2023-04-30T10:18:04.331Z,6.33
2023-04-30T10:20:32.276Z,4.50
2023-04-30T10:22:59.761Z,7.90
2023-04-30T10:25:27.979Z,10.00
2023-04-30T10:27:54.549Z,4.90
2023-04-30T10:30:22.380Z,7.20
2023-04-30T10:32:55.612Z,8.47
2023-04-30T10:35:28.915Z,3.80
2023-04-30T10:38:01.518Z,6.83
2023-04-30T10:40:28.168Z,10.13
2023-04-30T10:42:55.270Z,4.27
2023-04-30T10:45:38.399Z,2.80
2023-04-30T10:48:06.536Z,4.07
2023-04-30T10:50:33.365Z,4.67
2023-04-30T10:53:03.960Z,3.27
2023-04-30T10:55:31.413Z,8.23
2023-04-30T10:57:58.666Z,6.17
2023-04-30T11:00:29.507Z,5.37
2023-04-30T11:02:58.121Z,6.90
2023-04-30T11:05:38.383Z,7.07
2023-04-30T11:08:06.355Z,6.07
2023-04-30T11:10:34.784Z,3.37
2023-04-30T11:13:10.316Z,9.73
2023-04-30T11:15:45.482Z,6.17
2023-04-30T11:18:13.596Z,4.77
2023-04-30T11:20:44.290Z,8.50
2023-04-30T11:23:28.181Z,5.33
2023-04-30T11:26:04.839Z,6.27
2023-04-30T11:28:35.706Z,5.57
2023-04-30T11:31:02.685Z,5.17
2023-04-30T11:33:30.595Z,3.67
2023-04-30T11:35:59.327Z,4.40
2023-04-30T11:38:29.970Z,3.37
2023-04-30T11:40:57.927Z,3.37
2023-04-30T11:43:28.908Z,5.33
2023-04-30T11:46:21.504Z,7.23
2023-04-30T11:48:48.194Z,3.67
2023-04-30T11:51:23.939Z,7.23
2023-04-30T11:53:52.348Z,5.57
2023-04-30T11:56:21.422Z,4.13
2023-04-30T11:58:49.413Z,5.43
2023-04-30T12:01:16.719Z,5.93
2023-04-30T12:03:50.603Z,4.37
2023-04-30T12:06:27.590Z,3.43
2023-04-30T12:08:55.276Z,4.03
2023-04-30T12:11:26.546Z,4.67
2023-04-30T12:13:54.917Z,5.87
2023-04-30T12:16:21.557Z,6.87
2023-04-30T12:18:49.005Z,5.10
2023-04-30T12:21:17.024Z,4.53
2023-04-30T12:23:45.123Z,10.33
2023-04-30T12:26:11.781Z,5.40
2023-04-30T12:28:38.391Z,7.03
2023-04-30T12:31:05.951Z,3.37
2023-04-30T12:33:32.726Z,5.97
2023-04-30T12:35:59.537Z,4.27
2023-04-30T12:38:26.079Z,6.03
2023-04-30T12:40:52.664Z,3.30
2023-04-30T12:43:19.242Z,6.73
2023-04-30T12:45:51.821Z,5.80
2023-04-30T12:48:23.715Z,3.60
2023-04-30T12:51:02.965Z,6.97
2023-04-30T12:53:33.576Z,3.77
2023-04-30T12:56:15.488Z,7.33
2023-04-30T12:58:47.657Z,2.73
2023-04-30T13:01:17.312Z,3.87
2023-04-30T13:03:44.103Z,9.17
2023-04-30T13:06:10.855Z,7.73
2023-04-30T13:08:49.769Z,6.43
2023-04-30T13:11:26.754Z,6.33
2023-04-30T13:13:55.624Z,3.20
2023-04-30T13:16:22.923Z,6.67
2023-04-30T13:18:49.593Z,6.80
2023-04-30T13:21:16.104Z,3.77
2023-04-30T13:23:52.112Z,4.43
2023-04-30T13:26:21.463Z,3.93
2023-04-30T13:28:48.062Z,7.23
2023-04-30T13:31:14.697Z,5.90
2023-04-30T13:33:41.600Z,4.63
2023-04-30T13:36:08.086Z,2.90
2023-04-30T13:38:34.578Z,2.80
2023-04-30T13:41:01.546Z,4.80
2023-04-30T13:43:28.421Z,3.40
2023-04-30T13:45:54.922Z,6.80
2023-04-30T13:48:21.815Z,5.23
2023-04-30T13:50:48.407Z,6.57
2023-04-30T13:53:15.273Z,6.17
2023-04-30T13:55:41.854Z,3.03
2023-04-30T13:58:08.371Z,6.00
2023-04-30T14:00:34.867Z,4.83
2023-04-30T14:03:01.811Z,6.10
2023-04-30T14:05:28.431Z,8.97
2023-04-30T14:07:54.923Z,5.20
2023-04-30T14:10:21.598Z,5.20
2023-04-30T14:12:48.825Z,4.03
2023-04-30T14:15:15.571Z,1.93
2023-04-30T14:17:42.137Z,3.90
2023-04-30T14:20:09.330Z,4.07
2023-04-30T14:22:38.485Z,4.90
2023-04-30T14:25:05.635Z,5.33
2023-04-30T14:27:32.361Z,5.03
2023-04-30T14:29:58.850Z,5.13
2023-04-30T14:32:26.110Z,3.27
2023-04-30T14:34:53.348Z,4.00
2023-04-30T14:37:19.997Z,6.33
2023-04-30T14:39:46.679Z,5.83
2023-04-30T14:42:13.194Z,4.10
2023-04-30T14:44:40.419Z,9.77
2023-04-30T14:47:07.005Z,3.60
2023-04-30T14:49:33.625Z,3.47
2023-04-30T14:52:00.168Z,5.50
2023-04-30T14:54:26.952Z,9.00
2023-04-30T14:56:53.541Z,4.47
2023-04-30T14:59:20.146Z,5.33
2023-04-30T15:01:46.900Z,4.80
2023-04-30T15:04:13.452Z,6.77
2023-04-30T15:06:40.153Z,5.07
2023-04-30T15:09:07.040Z,4.27
2023-04-30T15:11:33.706Z,2.87
2023-04-30T15:14:00.373Z,5.37
2023-04-30T15:16:27.624Z,5.13
2023-04-30T15:18:54.340Z,3.73
2023-04-30T15:21:20.967Z,2.67
2023-04-30T15:23:47.729Z,3.77
2023-04-30T15:26:15.381Z,4.87
2023-04-30T15:28:41.907Z,4.40
2023-04-30T15:31:08.621Z,6.33
2023-04-30T15:33:39.677Z,5.13
2023-04-30T15:36:06.509Z,7.97
2023-04-30T15:38:33.264Z,3.77
2023-04-30T15:40:59.789Z,6.13
2023-04-30T15:43:26.351Z,3.60
2023-04-30T15:45:53.006Z,5.40
2023-04-30T15:48:19.520Z,2.97
2023-04-30T15:50:46.071Z,7.27
2023-04-30T15:53:12.625Z,5.37
2023-04-30T15:55:39.195Z,5.40
2023-04-30T15:58:05.995Z,4.37
2023-04-30T16:00:33.683Z,5.63
2023-04-30T16:03:00.553Z,5.13
2023-04-30T16:05:27.143Z,3.20
2023-04-30T16:07:54.502Z,3.13
2023-04-30T16:10:21.613Z,4.67
2023-04-30T16:12:48.644Z,3.73
2023-04-30T16:15:15.917Z,4.03
2023-04-30T16:17:42.457Z,4.57
2023-04-30T16:20:11.293Z,7.37
2023-04-30T16:22:37.930Z,3.90
2023-04-30T16:25:04.785Z,7.37
2023-04-30T16:27:31.416Z,7.00
2023-04-30T16:29:58.250Z,5.23
2023-04-30T16:32:25.354Z,5.90
2023-04-30T16:34:52.186Z,7.50
2023-04-30T16:37:18.866Z,6.37
2023-04-30T16:39:45.538Z,6.57
2023-04-30T16:42:12.271Z,4.77
2023-04-30T16:44:38.781Z,7.67
2023-04-30T16:47:05.260Z,7.23
2023-04-30T16:49:31.722Z,4.23
2023-04-30T16:51:58.356Z,4.10
2023-04-30T16:54:24.879Z,5.03
2023-04-30T16:56:51.337Z,4.00
2023-04-30T16:59:17.774Z,6.23
2023-04-30T17:01:44.419Z,4.00
2023-04-30T17:04:12.189Z,3.83
2023-04-30T17:06:39.208Z,2.80
2023-04-30T17:09:05.902Z,2.83
2023-04-30T17:11:33.637Z,3.67
2023-04-30T17:14:00.472Z,7.07
2023-04-30T17:16:27.086Z,4.47
2023-04-30T17:18:53.667Z,4.43
2023-04-30T17:21:20.424Z,4.03
2023-04-30T17:23:46.887Z,5.70
2023-04-30T17:26:13.361Z,4.00
2023-04-30T17:28:39.967Z,6.53
2023-04-30T17:31:09.355Z,6.27
2023-04-30T17:33:35.852Z,5.60
2023-04-30T17:36:02.704Z,4.67
2023-04-30T17:38:29.252Z,5.07
2023-04-30T17:40:57.567Z,5.50
2023-04-30T17:43:24.395Z,5.23
2023-04-30T17:45:53.789Z,6.70
2023-04-30T17:48:20.398Z,5.07
2023-04-30T17:50:47.086Z,13.37
2023-04-30T17:53:13.909Z,3.97
2023-04-30T17:55:40.598Z,4.30
2023-04-30T17:58:10.144Z,4.83
2023-04-30T18:00:39.065Z,4.47
2023-04-30T18:03:06.589Z,4.40
2023-04-30T18:05:35.540Z,4.67
2023-04-30T18:08:02.462Z,4.73
2023-04-30T18:10:29.113Z,4.03
2023-04-30T18:12:58.113Z,9.73
2023-04-30T18:15:24.621Z,9.83
2023-04-30T18:17:51.308Z,5.83
2023-04-30T18:20:18.118Z,7.00
2023-04-30T18:22:44.862Z,8.90
2023-04-30T18:25:13.105Z,12.00
2023-04-30T18:27:43.398Z,5.97
2023-04-30T18:30:10.639Z,5.37
2023-04-30T18:32:37.449Z,5.23
2023-04-30T18:35:04.620Z,6.60
2023-04-30T18:37:31.968Z,5.33
2023-04-30T18:39:59.175Z,9.10
2023-04-30T18:42:26.020Z,10.80
2023-04-30T18:44:52.520Z,10.30
2023-04-30T18:47:19.186Z,16.70
2023-04-30T18:49:45.747Z,12.87
2023-04-30T18:52:12.320Z,9.93
2023-04-30T18:54:38.903Z,11.67
2023-04-30T18:57:06.311Z,9.13
2023-04-30T18:59:33.315Z,9.90
2023-04-30T19:02:00.218Z,10.67
2023-04-30T19:04:27.292Z,10.17
2023-04-30T19:06:55.614Z,11.60
2023-04-30T19:09:22.205Z,13.10
2023-04-30T19:11:49.017Z,17.93
2023-04-30T19:14:15.522Z,12.03
2023-04-30T19:16:42.022Z,11.20
2023-04-30T19:19:08.631Z,12.07
2023-04-30T19:21:36.310Z,10.90
2023-04-30T19:24:05.891Z,12.70
2023-04-30T19:26:32.934Z,11.07
2023-04-30T19:28:59.856Z,12.40
2023-04-30T19:31:26.794Z,11.13
2023-04-30T19:33:53.512Z,9.57
2023-04-30T19:36:20.212Z,10.00
2023-04-30T19:38:46.725Z,11.73
2023-04-30T19:41:13.599Z,11.17
2023-04-30T19:43:40.148Z,9.63
2023-04-30T19:46:07.557Z,13.40
2023-04-30T19:48:34.158Z,14.87
2023-04-30T19:51:03.522Z,12.60
2023-04-30T19:53:30.318Z,15.57
2023-04-30T19:55:57.402Z,15.03
2023-04-30T19:58:23.931Z,14.83
2023-04-30T20:00:50.470Z,12.00
2023-04-30T20:03:17.964Z,10.07
2023-04-30T20:05:44.696Z,15.27
2023-04-30T20:08:11.262Z,15.07
2023-04-30T20:10:38.863Z,15.30
2023-04-30T20:13:06.062Z,9.80
2023-04-30T20:15:33.013Z,15.50
2023-04-30T20:18:01.334Z,12.33
2023-04-30T20:20:29.034Z,14.47
2023-04-30T20:22:56.194Z,12.27
2023-04-30T20:25:25.823Z,11.07
2023-04-30T20:27:52.271Z,15.60
2023-04-30T20:30:18.825Z,10.07
2023-04-30T20:32:45.499Z,13.00
2023-04-30T20:35:12.004Z,11.53
2023-04-30T20:37:38.501Z,9.73
2023-04-30T20:40:08.101Z,10.83
2023-04-30T20:42:34.861Z,10.57
2023-04-30T20:45:03.168Z,14.13
2023-04-30T20:47:31.886Z,14.33
2023-04-30T20:49:58.650Z,14.73
2023-04-30T20:52:25.389Z,17.17
2023-04-30T20:54:51.990Z,14.43
2023-04-30T20:57:18.489Z,16.07
2023-04-30T20:59:44.945Z,14.73
2023-04-30T21:02:11.788Z,15.17
2023-04-30T21:04:38.318Z,13.63
2023-04-30T21:07:05.109Z,16.10
2023-04-30T21:09:32.773Z,15.43
2023-04-30T21:11:59.456Z,17.33
2023-04-30T21:14:25.954Z,20.47
2023-04-30T21:16:52.616Z,24.70
2023-04-30T21:19:19.098Z,18.07
2023-04-30T21:21:46.360Z,19.20
2023-04-30T21:24:13.132Z,24.37
2023-04-30T21:26:39.715Z,14.57
2023-04-30T21:29:06.171Z,20.33
2023-04-30T21:31:32.810Z,20.97
2023-04-30T21:33:59.357Z,18.17
2023-04-30T21:36:25.849Z,22.60
2023-04-30T21:38:52.569Z,17.13
2023-04-30T21:41:19.764Z,11.17
2023-04-30T21:43:46.285Z,14.07
2023-04-30T21:46:14.302Z,14.33
2023-04-30T21:48:41.167Z,16.33
2023-04-30T21:51:17.434Z,17.10
2023-04-30T21:53:44.456Z,12.60
2023-04-30T21:56:11.651Z,13.40
2023-04-30T21:58:38.701Z,12.63
2023-04-30T22:01:05.365Z,13.77
2023-04-30T22:03:32.151Z,14.43
2023-04-30T22:05:59.265Z,14.20
2023-04-30T22:08:26.042Z,14.90
2023-04-30T22:10:58.412Z,15.33
2023-04-30T22:13:28.398Z,16.77
2023-04-30T22:15:55.277Z,17.07
2023-04-30T22:18:22.705Z,20.97
2023-04-30T22:20:49.972Z,17.90
2023-04-30T22:23:17.144Z,16.53
2023-04-30T22:25:43.627Z,17.20
2023-04-30T22:28:10.275Z,15.20
2023-04-30T22:30:37.727Z,16.07
2023-04-30T22:33:04.407Z,14.33
2023-04-30T22:35:32.760Z,18.57
2023-04-30T22:38:00.480Z,14.77
2023-04-30T22:40:27.096Z,17.70
2023-04-30T22:42:54.112Z,22.70
2023-04-30T22:45:20.698Z,17.37
2023-04-30T22:47:47.336Z,18.70
2023-04-30T22:50:13.917Z,16.67
2023-04-30T22:52:40.377Z,12.43
2023-04-30T22:55:07.458Z,22.60
2023-04-30T22:57:33.958Z,17.60
2023-04-30T23:00:00.873Z,15.97
2023-04-30T23:02:28.675Z,15.67
2023-04-30T23:04:55.375Z,15.27
2023-04-30T23:07:21.965Z,15.20
2023-04-30T23:09:49.267Z,14.40
2023-04-30T23:12:16.001Z,19.53
2023-04-30T23:14:42.488Z,18.63
2023-04-30T23:17:09.089Z,15.70
2023-04-30T23:19:35.847Z,16.43
2023-04-30T23:22:02.311Z,18.73
2023-04-30T23:24:28.812Z,14.67
2023-04-30T23:26:57.720Z,14.80
2023-04-30T23:29:25.053Z,9.43
2023-04-30T23:31:53.806Z,9.97
2023-04-30T23:34:20.793Z,12.43
2023-04-30T23:36:47.235Z,13.83
2023-04-30T23:39:13.716Z,11.37
2023-04-30T23:41:40.324Z,11.97
2023-04-30T23:44:06.790Z,12.30
2023-04-30T23:46:33.256Z,13.87
2023-04-30T23:48:59.804Z,13.50
2023-04-30T23:51:26.245Z,16.23
2023-04-30T23:53:52.944Z,15.40
2023-04-30T23:56:19.453Z,16.03
2023-04-30T23:58:45.966Z,12.87
